Aérodrome :
LOGIN :

S'inscrire | Disclaimer

   EN    FR    IT 

 










Légende :    VFR   VFR Marginal   IFR   IFR Intensif   IFR Très Intensif
Visi : 
Plafond : 
>= 8 km
>= 3000ft
5 à 8 km
1000 à 3000 ft
1500m à 5 km
500 à 1000 ft
800 à 1500m
200 à 500 ft
< 800m
< 200 ft
Symboles :   Orages  Brouillard  Fortes neiges  Fortes précipitations  Vent > 20 kt
SIGMETs :   Divers  Orages  Givrage  Turbulence  Onde Orograph.  Cendres Volcan.







- Altitude de l'aérodrome : 16 ft
- Code IATA : AAE


DABB - Annaba-Rabah Bitat

DERNIER METAR :
  • 220300Z 23006KT 9999 FEW023 20/19 Q1013

METARs EXPIRÉS :
  • 220230Z 22005KT 9999 FEW023 20/19 Q1014
  • 220200Z 20004KT 9999 FEW023 20/19 Q1014
  • 220130Z 19005KT 9999 FEW023 20/19 Q1014
  • 220100Z 19005KT 9999 FEW023 21/19 Q1013
  • 220030Z 19004KT 9999 FEW023 21/19 Q1014

TAF TAF DABB
Valide du 22 à 00h jusqu'au 23 à 00h UTC


212300Z 2200/2224 22007KT 9999 FEW023
PROB40
TEMPO 2200/2207 3000 BR BKN013
TEMPO 2208/2218 FEW026TCU
PROB30
TEMPO 2212/2218 5000 -TSRA FEW023CB
BECMG 2220/2222 18008KT
Pas de NOTAMs connus pour ce terrain.
2 SIGMETs publiés pour la FIR Alger (DAAA) :
 
Orages noyés dans la masse
DAAA SIGMET 2 VALID 220200/220500 DAMM
DAAA ALGER FIR EMBD TS OBS WI N3459 E00450 - N3116 E00450 - N3116 E00003 - N3459 E00450 - TOP FL380 MOV E NC=
Orages noyés dans la masse
DAAA SIGMET 1 VALID 220200/220500 DAMM
DAAA ALGER FIR EMBD TS OBS W OF LINE N3206 W00106 - N3000 W0106 - TOP FL360 STNR NC=



MET'MAP, la Météo Aéronautique d'un coup d'oeil ! - Copyright ORBIFLY Décembre 2007 - Disclaimer

ORBIFLY MET'MAP TEAM :

Programmation & Développement : Alexandra Zaïnal
Conception & Développement : Baudouin d'Aumeries
Co-Programmation & Développement : Marc-Olivier Méhu
Soutien technique & logistique : Manuel Goepfert

Contact : metmap@orbifly.com




SOURCES & CREDITS :

   NOAA